Time;durP1;ratioP1;P1;durP2;ratioP2;P2;SDS_P1;SDS_P2;PMS_P1;PMS_P2;Temp;Humidity;BMP_temperature;BMP_pressure;BME280_temperature;BME280_humidity;BME280_pressure;Samples;Min_cycle;Max_cycle;Signal;HPM_P1;HPM_P2
2022/09/08 00:00:08;;;;;;;11.30;10.40;;;17.40;99.90;;;;;;4930086;29;20482;-79
2022/09/08 00:02:36;;;;;;;12.80;11.17;;;17.50;99.90;;;;;;4931791;29;20486;-80
2022/09/08 00:05:04;;;;;;;10.73;9.77;;;17.50;99.90;;;;;;4939868;29;20514;-81
2022/09/08 00:07:32;;;;;;;12.70;9.30;;;17.50;99.90;;;;;;4930524;29;20501;-81
2022/09/08 00:10:00;;;;;;;10.03;9.03;;;17.50;99.90;;;;;;4915145;29;20491;-81
2022/09/08 00:12:28;;;;;;;12.97;10.27;;;17.40;99.90;;;;;;4929581;29;20481;-80
2022/09/08 00:14:55;;;;;;;10.63;9.63;;;17.40;99.90;;;;;;4931843;29;20436;-80
2022/09/08 00:17:23;;;;;;;11.63;10.43;;;17.30;99.90;;;;;;4930908;29;20462;-78
2022/09/08 00:19:50;;;;;;;11.53;10.43;;;17.20;99.90;;;;;;4929953;29;20486;-80
2022/09/08 00:22:17;;;;;;;12.97;9.90;;;17.30;99.90;;;;;;4930150;29;20454;-79
2022/09/08 00:24:44;;;;;;;12.30;11.07;;;17.20;99.90;;;;;;4940176;29;20501;-79
2022/09/08 00:27:13;;;;;;;12.43;11.23;;;17.20;99.90;;;;;;4938843;29;21012;-79
2022/09/08 00:29:40;;;;;;;11.20;10.10;;;17.10;99.90;;;;;;4928682;29;20660;-80
2022/09/08 00:32:07;;;;;;;13.00;10.70;;;17.00;99.90;;;;;;4933968;29;20474;-80
2022/09/08 00:34:34;;;;;;;12.47;11.10;;;17.00;99.90;;;;;;4930689;29;20474;-79
2022/09/08 00:37:01;;;;;;;10.73;9.87;;;17.00;99.90;;;;;;4931325;29;20450;-79
2022/09/08 00:39:27;;;;;;;12.50;11.13;;;17.00;99.90;;;;;;4931029;29;20585;-80
2022/09/08 00:41:55;;;;;;;13.93;10.63;;;17.00;99.90;;;;;;4931341;29;20443;-82
2022/09/08 00:44:50;;;;;;;11.77;10.63;;;16.90;99.90;;;;;;4931032;29;20446;-79
2022/09/08 00:47:25;;;;;;;12.60;11.30;;;17.00;99.90;;;;;;4929343;29;20513;-78
2022/09/08 00:50:18;;;;;;;12.90;11.20;;;17.10;99.90;;;;;;4931386;29;20430;-79
2022/09/08 00:52:50;;;;;;;12.67;11.40;;;17.10;99.90;;;;;;4925600;29;20446;-81
2022/09/08 00:55:19;;;;;;;13.87;10.90;;;17.00;99.90;;;;;;4930967;29;20663;-80
2022/09/08 00:57:46;;;;;;;17.93;11.97;;;17.10;99.90;;;;;;4931428;29;20900;-80
2022/09/08 01:00:16;;;;;;;12.60;11.40;;;17.00;99.90;;;;;;4931257;29;20599;-80
2022/09/08 01:02:45;;;;;;;18.97;13.23;;;16.80;99.90;;;;;;4930933;29;20478;-78
2022/09/08 01:05:17;;;;;;;15.03;11.20;;;16.90;99.90;;;;;;4940015;29;20525;-79
2022/09/08 01:13:47;;;;;;;14.13;11.13;;;16.90;99.90;;;;;;4926784;29;20465;-79
2022/09/08 01:16:13;;;;;;;12.50;11.20;;;16.90;99.90;;;;;;4929886;29;20455;-80
2022/09/08 01:18:42;;;;;;;13.47;11.20;;;16.80;99.90;;;;;;4937214;29;20456;-80
2022/09/08 01:21:49;;;;;;;11.83;10.77;;;16.70;99.90;;;;;;4939066;29;20453;-81
2022/09/08 01:24:32;;;;;;;13.50;10.47;;;16.70;99.90;;;;;;4929517;29;20675;-79
2022/09/08 01:27:13;;;;;;;12.43;11.17;;;16.60;99.90;;;;;;4918568;29;20448;-82
2022/09/08 01:29:42;;;;;;;13.70;12.10;;;16.60;99.90;;;;;;4929660;29;20703;-80
2022/09/08 01:32:10;;;;;;;14.93;12.40;;;16.60;99.90;;;;;;4933544;29;20525;-81
2022/09/08 01:34:43;;;;;;;12.97;11.67;;;16.70;99.90;;;;;;4928933;29;20474;-79
2022/09/08 01:37:10;;;;;;;13.03;11.60;;;16.70;99.90;;;;;;4927786;29;20514;-79
2022/09/08 01:39:38;;;;;;;12.47;11.13;;;16.60;99.90;;;;;;4930410;29;20541;-80
2022/09/08 01:42:05;;;;;;;12.70;11.40;;;16.50;99.90;;;;;;4931371;29;20486;-79
2022/09/08 01:44:33;;;;;;;17.00;13.00;;;16.60;99.90;;;;;;4929539;29;20446;-79
2022/09/08 01:46:59;;;;;;;12.70;11.50;;;16.50;99.90;;;;;;4929945;29;20588;-79
2022/09/08 01:49:26;;;;;;;15.00;11.63;;;16.60;99.90;;;;;;4930636;29;20614;-80
2022/09/08 01:51:53;;;;;;;14.33;12.93;;;16.60;99.90;;;;;;4926548;29;20448;-82
2022/09/08 01:54:20;;;;;;;10.30;9.30;;;16.50;99.90;;;;;;4925287;29;20702;-81
2022/09/08 01:56:47;;;;;;;11.80;10.60;;;16.50;99.90;;;;;;4931755;29;20564;-80
2022/09/08 01:59:14;;;;;;;12.50;11.30;;;16.40;99.90;;;;;;4933017;29;20769;-81
2022/09/08 02:01:41;;;;;;;11.23;10.23;;;16.40;99.90;;;;;;4928602;29;20501;-81
2022/09/08 02:04:08;;;;;;;16.83;11.10;;;16.40;99.90;;;;;;4932647;29;20844;-79
2022/09/08 02:06:36;;;;;;;14.50;12.90;;;16.40;99.90;;;;;;4912074;29;20463;-79
2022/09/08 02:09:03;;;;;;;13.10;11.80;;;16.40;99.90;;;;;;4927589;29;20489;-82
2022/09/08 02:11:30;;;;;;;16.07;12.23;;;16.40;99.90;;;;;;4932806;29;20481;-82
2022/09/08 02:13:57;;;;;;;12.40;11.13;;;16.40;99.90;;;;;;4926294;29;20515;-83
2022/09/08 02:16:24;;;;;;;13.43;11.57;;;16.30;99.90;;;;;;4926480;29;20495;-84
2022/09/08 02:18:55;;;;;;;13.97;12.27;;;16.30;99.90;;;;;;4934801;29;20467;-81
2022/09/08 02:21:24;;;;;;;12.40;10.70;;;16.40;99.90;;;;;;4926834;29;20540;-83
2022/09/08 02:23:51;;;;;;;14.10;11.03;;;16.30;99.90;;;;;;4927789;29;20424;-80
2022/09/08 02:26:20;;;;;;;13.03;11.27;;;16.30;99.90;;;;;;4932396;29;20454;-83
2022/09/08 02:28:48;;;;;;;14.37;11.80;;;16.40;99.90;;;;;;4938255;29;20446;-80
2022/09/08 02:31:15;;;;;;;14.93;12.20;;;16.40;99.90;;;;;;4951515;28;20470;-80
2022/09/08 02:33:42;;;;;;;12.80;11.47;;;16.40;99.90;;;;;;4929420;29;20468;-82
2022/09/08 02:36:09;;;;;;;15.67;12.53;;;16.30;99.90;;;;;;4929917;29;20458;-84
2022/09/08 02:38:36;;;;;;;14.13;12.27;;;16.40;99.90;;;;;;4932717;29;20560;-79
2022/09/08 02:41:03;;;;;;;14.10;12.70;;;16.30;99.90;;;;;;4930297;29;20536;-80
2022/09/08 02:43:30;;;;;;;15.30;12.30;;;16.30;99.90;;;;;;4932703;29;20477;-81
2022/09/08 02:46:03;;;;;;;13.70;11.93;;;16.30;99.90;;;;;;4929092;29;20450;-81
2022/09/08 02:48:30;;;;;;;14.70;12.63;;;16.30;99.90;;;;;;4928378;29;20439;-83
2022/09/08 02:51:05;;;;;;;15.67;12.43;;;16.20;99.90;;;;;;4920648;29;20506;-82
2022/09/08 02:53:33;;;;;;;15.17;12.67;;;16.30;99.90;;;;;;4935836;29;20450;-83
2022/09/08 02:56:01;;;;;;;13.13;11.83;;;16.40;99.90;;;;;;4908523;29;20431;-81
2022/09/08 02:58:30;;;;;;;13.63;11.80;;;16.20;99.90;;;;;;4923817;29;20506;-79
2022/09/08 03:00:58;;;;;;;12.03;10.70;;;16.20;99.90;;;;;;4930895;29;20593;-80
2022/09/08 03:03:25;;;;;;;15.97;11.60;;;16.20;99.90;;;;;;4929827;29;20513;-81
2022/09/08 03:05:53;;;;;;;11.33;10.17;;;16.20;99.90;;;;;;4932578;29;20450;-81
2022/09/08 03:08:21;;;;;;;14.17;12.77;;;16.20;99.90;;;;;;4926548;29;20460;-78
2022/09/08 03:10:48;;;;;;;14.40;12.90;;;16.10;99.90;;;;;;4920831;29;20461;-79
2022/09/08 03:13:16;;;;;;;15.57;11.90;;;15.90;99.90;;;;;;4930253;29;21016;-78
2022/09/08 03:15:43;;;;;;;12.97;11.20;;;15.90;99.90;;;;;;4934647;29;20450;-78
2022/09/08 03:18:11;;;;;;;13.97;11.40;;;15.90;99.90;;;;;;4924297;29;20481;-80
2022/09/08 03:20:39;;;;;;;14.30;12.00;;;15.90;99.90;;;;;;4923935;29;20599;-80
2022/09/08 03:23:06;;;;;;;14.93;12.47;;;15.90;99.90;;;;;;4925377;29;20445;-80
2022/09/08 03:25:36;;;;;;;13.33;11.33;;;15.90;99.90;;;;;;4924511;29;20600;-78
2022/09/08 03:28:04;;;;;;;16.30;14.70;;;15.90;99.90;;;;;;4931351;29;20454;-81
2022/09/08 03:30:31;;;;;;;13.03;11.50;;;15.70;99.90;;;;;;4929759;29;20442;-79
2022/09/08 03:32:58;;;;;;;18.70;11.40;;;15.70;99.90;;;;;;4926326;29;20459;-79
2022/09/08 03:35:25;;;;;;;13.20;11.90;;;15.70;99.90;;;;;;4915750;29;20450;-80
2022/09/08 03:37:54;;;;;;;18.43;11.37;;;15.60;99.90;;;;;;4919569;29;20454;-77
2022/09/08 03:40:21;;;;;;;16.20;11.67;;;15.60;99.90;;;;;;4926356;29;20504;-81
2022/09/08 03:42:48;;;;;;;12.50;11.20;;;15.70;99.90;;;;;;4927676;29;20495;-80
2022/09/08 03:45:17;;;;;;;12.63;10.97;;;15.60;99.90;;;;;;4933322;29;20472;-80
2022/09/08 03:47:44;;;;;;;14.47;12.40;;;15.60;99.90;;;;;;4930746;29;20472;-81
2022/09/08 03:50:14;;;;;;;18.20;12.50;;;15.60;99.90;;;;;;4929741;29;20498;-79
2022/09/08 03:52:41;;;;;;;13.00;10.83;;;15.50;99.90;;;;;;4936690;29;20441;-80
2022/09/08 03:55:09;;;;;;;12.37;11.17;;;15.60;99.90;;;;;;4923782;29;20490;-81
2022/09/08 03:57:37;;;;;;;17.50;11.33;;;15.50;99.90;;;;;;4934676;29;20875;-82
2022/09/08 04:00:07;;;;;;;14.30;12.80;;;15.50;99.90;;;;;;4930931;29;20481;-81
2022/09/08 04:02:34;;;;;;;12.50;11.20;;;15.50;99.90;;;;;;4932146;29;20520;-80
2022/09/08 04:05:02;;;;;;;14.33;11.73;;;15.40;99.90;;;;;;4937207;29;20460;-82
2022/09/08 04:07:30;;;;;;;15.17;12.23;;;15.20;99.90;;;;;;4931045;29;20442;-82
2022/09/08 04:09:57;;;;;;;13.93;11.90;;;15.30;99.90;;;;;;4925683;29;20997;-81
2022/09/08 04:12:25;;;;;;;15.33;12.50;;;15.20;99.90;;;;;;4931493;29;20444;-81
2022/09/08 04:14:52;;;;;;;13.77;11.60;;;15.10;99.90;;;;;;4927547;29;20505;-79
2022/09/08 04:17:21;;;;;;;15.03;11.80;;;15.20;99.90;;;;;;4942867;29;20520;-80
2022/09/08 04:19:51;;;;;;;12.50;11.20;;;15.10;99.90;;;;;;4932509;29;20445;-79
2022/09/08 04:22:22;;;;;;;13.50;11.73;;;15.10;99.90;;;;;;4936913;29;20426;-79
2022/09/08 04:24:50;;;;;;;12.50;10.93;;;15.10;99.90;;;;;;4934136;29;20461;-80
2022/09/08 04:27:22;;;;;;;17.33;11.40;;;15.10;99.90;;;;;;4933475;29;20481;-79
2022/09/08 04:29:50;;;;;;;17.43;11.60;;;15.10;99.90;;;;;;4927991;29;20214;-79
2022/09/08 04:32:19;;;;;;;13.27;10.73;;;15.20;99.90;;;;;;4923897;29;20465;-79
2022/09/08 04:34:51;;;;;;;11.40;10.23;;;15.20;99.90;;;;;;4921168;29;20448;-80
2022/09/08 04:37:19;;;;;;;16.77;11.80;;;15.30;99.90;;;;;;4927458;29;20775;-79
2022/09/08 04:39:48;;;;;;;16.27;12.27;;;15.30;99.90;;;;;;4934861;29;20456;-81
2022/09/08 04:42:16;;;;;;;14.43;10.83;;;15.30;99.90;;;;;;4926845;29;20499;-79
2022/09/08 04:44:43;;;;;;;16.43;10.90;;;15.30;99.90;;;;;;4923197;29;20453;-79
2022/09/08 04:47:10;;;;;;;14.17;12.77;;;15.40;99.90;;;;;;4927107;29;20508;-81
2022/09/08 04:49:36;;;;;;;15.30;10.90;;;15.50;99.90;;;;;;4933717;29;20482;-77
2022/09/08 04:52:04;;;;;;;12.87;11.20;;;15.60;99.90;;;;;;4926183;29;20517;-77
2022/09/08 04:54:30;;;;;;;14.73;11.70;;;15.70;99.90;;;;;;4922967;29;20455;-78
2022/09/08 04:56:57;;;;;;;12.53;10.77;;;15.80;99.90;;;;;;4920813;29;20513;-79
2022/09/08 04:59:25;;;;;;;13.50;11.20;;;16.00;99.90;;;;;;4928193;29;20477;-80
2022/09/08 05:01:53;;;;;;;12.73;11.37;;;16.00;99.90;;;;;;4926812;29;20517;-80
2022/09/08 05:04:20;;;;;;;12.13;10.63;;;16.10;99.90;;;;;;4931928;29;20758;-77
2022/09/08 05:06:47;;;;;;;16.70;11.43;;;16.10;99.90;;;;;;4930050;29;20493;-80
2022/09/08 05:09:14;;;;;;;12.10;10.90;;;16.20;99.90;;;;;;4920492;29;20458;-79
2022/09/08 05:11:41;;;;;;;16.33;11.83;;;16.30;99.90;;;;;;4922860;29;20475;-78
2022/09/08 05:14:08;;;;;;;11.80;10.60;;;16.50;99.90;;;;;;4923737;29;20479;-80
2022/09/08 05:16:35;;;;;;;13.80;11.70;;;16.50;99.90;;;;;;4922734;29;20788;-80
2022/09/08 05:19:04;;;;;;;11.47;10.17;;;16.70;99.90;;;;;;4925918;29;20418;-80
2022/09/08 05:21:33;;;;;;;12.13;10.67;;;16.80;99.90;;;;;;4927687;29;20546;-78
2022/09/08 05:24:01;;;;;;;13.50;11.00;;;16.80;99.90;;;;;;4922833;29;20499;-79
2022/09/08 05:26:29;;;;;;;11.93;10.80;;;16.90;99.90;;;;;;4936108;29;20454;-81
2022/09/08 05:28:56;;;;;;;11.83;10.30;;;17.00;99.90;;;;;;4930941;29;20750;-78
2022/09/08 05:31:26;;;;;;;16.10;11.07;;;17.00;99.90;;;;;;4936247;29;20517;-78
2022/09/08 05:33:55;;;;;;;13.40;11.13;;;16.90;99.90;;;;;;4938613;29;20725;-81
2022/09/08 05:36:25;;;;;;;17.77;11.47;;;16.90;99.90;;;;;;4924214;29;20837;-77
2022/09/08 05:38:54;;;;;;;12.20;10.83;;;17.00;99.90;;;;;;4925864;29;20454;-78
2022/09/08 05:41:23;;;;;;;14.93;11.63;;;17.00;99.90;;;;;;4911534;29;20501;-77
2022/09/08 05:43:57;;;;;;;14.67;10.90;;;17.10;99.90;;;;;;4918098;29;20486;-80
2022/09/08 05:46:26;;;;;;;16.30;12.43;;;17.30;99.90;;;;;;4920707;29;20484;-79
2022/09/08 05:48:57;;;;;;;14.23;11.67;;;17.40;99.90;;;;;;4923701;29;20453;-80
2022/09/08 05:51:24;;;;;;;15.53;13.97;;;17.60;99.90;;;;;;4936067;29;20454;-79
2022/09/08 05:53:51;;;;;;;24.47;13.33;;;17.90;99.90;;;;;;4923640;29;20603;-79
2022/09/08 05:56:18;;;;;;;18.20;11.90;;;17.90;99.90;;;;;;4920851;29;20890;-79
2022/09/08 05:58:53;;;;;;;15.90;11.33;;;17.80;99.90;;;;;;4933023;29;20447;-77
2022/09/08 06:01:26;;;;;;;21.10;15.10;;;17.90;99.90;;;;;;4929445;29;20574;-79
2022/09/08 06:03:54;;;;;;;12.50;11.20;;;18.00;99.90;;;;;;4925107;29;20522;-76
2022/09/08 06:06:22;;;;;;;17.93;14.57;;;18.00;99.90;;;;;;4924183;29;20756;-77
2022/09/08 06:08:48;;;;;;;17.23;13.70;;;18.10;99.90;;;;;;4925596;29;20767;-76
2022/09/08 06:11:16;;;;;;;20.13;13.33;;;18.40;99.90;;;;;;4929665;29;20429;-79
2022/09/08 06:13:43;;;;;;;14.67;13.27;;;18.70;99.90;;;;;;4930710;29;20799;-78
2022/09/08 06:16:13;;;;;;;14.43;12.43;;;19.10;99.90;;;;;;4931751;29;20673;-78
2022/09/08 06:18:43;;;;;;;14.97;13.47;;;19.20;99.90;;;;;;4933107;29;20447;-78
2022/09/08 06:21:24;;;;;;;14.33;12.77;;;19.30;99.90;;;;;;4927574;29;20464;-78
2022/09/08 06:23:53;;;;;;;17.90;13.40;;;19.50;99.90;;;;;;4930846;29;20470;-77
2022/09/08 06:26:52;;;;;;;20.47;13.20;;;19.60;99.90;;;;;;4936656;29;20424;-81
2022/09/08 06:29:42;;;;;;;17.23;13.43;;;19.60;99.90;;;;;;4922550;29;20760;-81
2022/09/08 06:32:29;;;;;;;19.87;13.80;;;19.70;99.90;;;;;;4922411;29;20413;-80
2022/09/08 06:35:13;;;;;;;13.70;12.13;;;19.80;99.90;;;;;;4932820;29;20417;-78
2022/09/08 06:37:48;;;;;;;17.00;13.00;;;20.20;99.90;;;;;;4928185;29;20622;-77
2022/09/08 06:40:25;;;;;;;14.63;12.90;;;20.90;99.90;;;;;;4932893;29;20427;-76
2022/09/08 06:43:01;;;;;;;15.37;13.00;;;21.50;99.90;;;;;;4933127;29;20607;-77
2022/09/08 06:45:33;;;;;;;22.13;13.27;;;22.00;99.90;;;;;;4938830;29;20834;-77
2022/09/08 06:48:21;;;;;;;13.73;12.33;;;22.00;99.90;;;;;;4929510;29;20770;-76
2022/09/08 06:50:53;;;;;;;13.70;12.33;;;22.20;99.90;;;;;;4928961;29;20645;-77
2022/09/08 06:53:24;;;;;;;15.23;13.37;;;23.30;99.90;;;;;;4931060;29;20429;-78
2022/09/08 06:56:29;;;;;;;15.10;12.53;;;23.10;99.90;;;;;;4919944;29;20443;-78
2022/09/08 06:59:37;;;;;;;15.80;13.67;;;23.80;99.90;;;;;;4933959;29;20811;-79
2022/09/08 07:02:07;;;;;;;14.33;12.83;;;24.50;99.90;;;;;;4934818;29;20523;-78
2022/09/08 07:04:41;;;;;;;14.63;13.03;;;24.90;99.90;;;;;;4932512;29;20416;-77
2022/09/08 07:07:35;;;;;;;16.77;12.90;;;25.40;99.90;;;;;;4935079;29;20600;-78
2022/09/08 07:10:11;;;;;;;14.73;13.17;;;24.60;99.90;;;;;;4922270;29;20520;-77
2022/09/08 07:12:44;;;;;;;14.10;12.60;;;24.70;99.90;;;;;;4928652;29;20440;-79
2022/09/08 07:15:30;;;;;;;17.37;14.30;;;26.00;99.90;;;;;;4931886;29;20737;-78
2022/09/08 07:18:21;;;;;;;15.00;13.57;;;26.90;99.90;;;;;;4919484;29;20418;-78
2022/09/08 07:20:49;;;;;;;15.20;13.70;;;27.50;99.90;;;;;;4930145;29;20476;-78
2022/09/08 07:23:27;;;;;;;14.50;13.20;;;27.50;99.90;;;;;;4938213;29;20479;-78
2022/09/08 07:26:00;;;;;;;15.57;13.83;;;28.00;99.90;;;;;;4941227;29;20481;-78
2022/09/08 07:28:33;;;;;;;20.53;14.23;;;27.50;99.90;;;;;;4945040;29;20478;-77
2022/09/08 07:31:02;;;;;;;17.00;13.33;;;27.40;99.90;;;;;;4936685;29;20453;-77
2022/09/08 07:33:40;;;;;;;13.90;12.40;;;27.00;99.90;;;;;;4931090;29;20451;-80
2022/09/08 07:36:11;;;;;;;15.37;13.77;;;28.30;99.90;;;;;;4931886;29;20510;-78
2022/09/08 07:38:59;;;;;;;13.20;11.90;;;27.70;99.90;;;;;;4932494;29;20474;-78
2022/09/08 07:41:36;;;;;;;13.80;12.53;;;28.00;99.90;;;;;;4930598;29;20583;-79
2022/09/08 07:44:13;;;;;;;20.60;13.20;;;29.10;99.90;;;;;;4939603;29;20497;-78
2022/09/08 07:47:05;;;;;;;15.00;13.60;;;28.70;99.90;;;;;;4933158;29;20813;-76
2022/09/08 07:49:35;;;;;;;15.47;12.70;;;29.50;99.90;;;;;;4933902;29;20429;-79
2022/09/08 07:52:15;;;;;;;14.33;12.90;;;29.00;99.90;;;;;;4930180;29;20496;-77
2022/09/08 07:55:18;;;;;;;14.90;11.93;;;29.20;99.90;;;;;;4933605;29;20445;-77
2022/09/08 07:58:11;;;;;;;12.70;11.33;;;28.80;99.90;;;;;;4925258;29;20438;-78
2022/09/08 08:00:55;;;;;;;14.73;12.90;;;29.10;99.90;;;;;;4915532;29;20512;-78
2022/09/08 08:03:45;;;;;;;13.67;12.17;;;29.00;99.90;;;;;;4934483;29;20493;-78
2022/09/08 08:06:22;;;;;;;11.53;10.53;;;28.40;99.90;;;;;;4920664;29;20459;-78
2022/09/08 08:09:11;;;;;;;13.90;11.50;;;29.20;99.90;;;;;;4923374;29;20712;-78
2022/09/08 08:11:49;;;;;;;10.97;10.07;;;30.00;99.90;;;;;;4931008;29;20443;-78
2022/09/08 08:14:23;;;;;;;13.30;12.00;;;30.50;99.90;;;;;;4927760;29;20457;-83
2022/09/08 08:17:14;;;;;;;12.93;11.73;;;29.80;99.90;;;;;;4928813;29;20448;-78
2022/09/08 08:20:23;;;;;;;11.23;10.13;;;29.80;99.90;;;;;;4932346;29;20442;-80
2022/09/08 08:23:05;;;;;;;11.47;10.33;;;30.30;99.90;;;;;;4918617;29;20600;-77
2022/09/08 08:25:41;;;;;;;12.13;11.00;;;30.50;99.90;;;;;;4932342;29;20448;-77
2022/09/08 08:28:17;;;;;;;11.13;9.40;;;30.70;99.90;;;;;;4927045;29;20441;-77
2022/09/08 08:31:17;;;;;;;12.30;10.60;;;30.00;99.90;;;;;;4931420;29;20807;-84
2022/09/08 08:33:49;;;;;;;11.80;10.27;;;30.60;99.90;;;;;;4934323;29;20517;-81
2022/09/08 08:36:21;;;;;;;11.80;10.80;;;32.10;99.90;;;;;;4925084;29;20447;-81
2022/09/08 08:38:52;;;;;;;10.30;9.40;;;31.20;99.90;;;;;;4929643;29;20447;-82
2022/09/08 08:41:30;;;;;;;11.50;10.30;;;31.70;99.90;;;;;;4929207;29;20486;-81
2022/09/08 08:44:40;;;;;;;10.80;9.70;;;31.50;99.90;;;;;;4926969;29;20586;-81
2022/09/08 08:47:40;;;;;;;10.30;9.30;;;31.30;99.90;;;;;;4929385;29;20527;-81
2022/09/08 08:50:25;;;;;;;10.93;9.93;;;30.60;99.90;;;;;;4926822;29;20758;-80
2022/09/08 08:53:27;;;;;;;11.53;10.50;;;29.20;99.90;;;;;;4926832;29;20448;-83
2022/09/08 08:56:47;;;;;;;14.73;9.67;;;28.50;99.90;;;;;;4926706;29;20410;-81
2022/09/08 08:59:20;;;;;;;11.67;10.17;;;29.40;99.90;;;;;;4929379;29;20437;-83
2022/09/08 09:02:22;;;;;;;11.37;10.23;;;29.40;99.90;;;;;;4933261;29;20650;-81
2022/09/08 09:04:58;;;;;;;11.50;10.50;;;29.20;99.90;;;;;;4927311;29;20469;-81
2022/09/08 09:07:44;;;;;;;20.33;10.20;;;30.40;99.90;;;;;;4918990;29;20441;-80
2022/09/08 09:10:38;;;;;;;12.13;10.67;;;30.10;99.90;;;;;;4934232;29;20543;-82
2022/09/08 09:13:20;;;;;;;13.57;11.17;;;29.70;99.90;;;;;;4919335;29;20454;-81
2022/09/08 09:15:47;;;;;;;10.60;9.63;;;29.10;99.90;;;;;;4930761;29;20490;-80
2022/09/08 09:18:59;;;;;;;10.47;9.47;;;29.00;99.90;;;;;;4934265;29;20687;-80
2022/09/08 09:22:04;;;;;;;10.00;9.20;;;28.50;99.90;;;;;;4935522;29;20446;-82
2022/09/08 09:24:55;;;;;;;11.17;9.80;;;27.70;99.90;;;;;;4930001;29;20502;-80
2022/09/08 09:27:45;;;;;;;10.93;9.70;;;27.80;99.90;;;;;;4931072;29;20494;-81
2022/09/08 09:30:12;;;;;;;12.77;11.37;;;27.80;99.90;;;;;;4927502;29;20439;-80
2022/09/08 09:33:04;;;;;;;13.17;11.00;;;27.60;99.90;;;;;;4928779;29;20451;-78
2022/09/08 09:35:52;;;;;;;11.00;10.10;;;27.50;99.90;;;;;;4934646;29;20524;-79
2022/09/08 09:39:14;;;;;;;10.03;9.20;;;27.30;99.90;;;;;;4916690;29;20446;-79
2022/09/08 09:42:04;;;;;;;11.50;10.60;;;27.20;99.90;;;;;;4898551;29;20518;-80
2022/09/08 09:44:34;;;;;;;13.27;10.30;;;27.10;99.90;;;;;;4882219;29;20450;-84
2022/09/08 09:47:24;;;;;;;11.17;10.10;;;27.30;99.90;;;;;;4918142;29;20558;-80
2022/09/08 09:50:17;;;;;;;12.27;10.03;;;27.50;99.90;;;;;;4917681;29;20447;-79
2022/09/08 09:53:25;;;;;;;12.00;10.90;;;27.40;99.90;;;;;;4938204;29;20686;-80
2022/09/08 09:56:42;;;;;;;12.07;10.97;;;27.30;99.90;;;;;;4924335;29;20430;-80
2022/09/08 09:59:38;;;;;;;11.43;10.30;;;27.50;99.90;;;;;;4923559;29;20428;-79
2022/09/08 10:02:30;;;;;;;11.97;10.87;;;27.20;99.90;;;;;;4921910;29;20698;-83
2022/09/08 10:05:35;;;;;;;12.40;11.30;;;27.00;99.90;;;;;;4927147;29;20517;-82
2022/09/08 10:08:17;;;;;;;11.67;10.77;;;27.00;99.90;;;;;;4923733;29;20768;-79
2022/09/08 10:11:01;;;;;;;11.23;10.23;;;26.90;99.90;;;;;;4933546;29;20431;-78
2022/09/08 10:13:57;;;;;;;11.60;10.57;;;26.80;99.90;;;;;;4932966;29;20766;-78
2022/09/08 10:16:33;;;;;;;12.97;11.67;;;26.80;99.90;;;;;;4933998;29;20453;-81
2022/09/08 10:19:31;;;;;;;11.70;10.50;;;26.80;99.90;;;;;;4932697;29;20446;-79
2022/09/08 10:22:35;;;;;;;11.63;10.40;;;26.90;99.90;;;;;;4926168;29;20533;-81
2022/09/08 10:25:42;;;;;;;12.83;11.63;;;26.90;99.90;;;;;;4924978;29;20427;-80
2022/09/08 10:28:51;;;;;;;12.00;10.80;;;27.10;99.90;;;;;;4935289;29;20468;-81
2022/09/08 10:31:55;;;;;;;12.13;10.93;;;27.10;99.90;;;;;;4933281;29;20457;-81
2022/09/08 10:34:54;;;;;;;12.27;11.27;;;27.30;99.90;;;;;;4934323;29;20486;-81
2022/09/08 10:38:08;;;;;;;14.00;11.47;;;27.10;99.90;;;;;;4926893;29;20424;-81
2022/09/08 10:40:45;;;;;;;12.10;10.90;;;27.10;99.90;;;;;;4880105;29;20767;-79
2022/09/08 10:43:24;;;;;;;11.77;10.67;;;27.50;99.90;;;;;;4934415;29;20473;-80
2022/09/08 10:46:30;;;;;;;11.93;10.87;;;27.70;99.90;;;;;;4933883;29;20441;-81
2022/09/08 10:49:30;;;;;;;11.93;10.70;;;28.20;99.90;;;;;;4919967;29;20477;-81
2022/09/08 10:52:30;;;;;;;11.57;10.67;;;28.50;99.90;;;;;;4927999;29;20497;-80
2022/09/08 10:55:29;;;;;;;11.13;10.00;;;28.20;99.90;;;;;;4918017;29;20461;-80
2022/09/08 10:58:42;;;;;;;11.60;10.50;;;28.30;99.90;;;;;;4933233;29;20502;-80
2022/09/08 11:01:37;;;;;;;12.67;11.47;;;28.40;99.90;;;;;;4933127;29;20486;-81
2022/09/08 11:04:25;;;;;;;10.97;9.93;;;28.50;99.90;;;;;;4930654;29;20610;-78
2022/09/08 11:07:14;;;;;;;10.77;9.80;;;28.40;99.90;;;;;;4925766;29;20674;-78
2022/09/08 11:10:07;;;;;;;11.10;10.10;;;27.80;99.90;;;;;;4941199;29;20416;-80
2022/09/08 11:13:37;;;;;;;12.03;10.97;;;27.70;99.90;;;;;;4925979;29;20404;-80
2022/09/08 11:16:19;;;;;;;11.00;10.00;;;28.10;99.90;;;;;;4934309;29;20438;-82
2022/09/08 11:19:16;;;;;;;11.10;10.20;;;28.00;99.90;;;;;;4933345;29;20431;-79
2022/09/08 11:22:22;;;;;;;12.10;11.10;;;28.00;99.90;;;;;;4928745;29;20590;-84
2022/09/08 11:25:18;;;;;;;10.53;9.57;;;28.40;99.90;;;;;;4924519;29;20466;-78
2022/09/08 11:28:00;;;;;;;10.73;9.83;;;28.40;99.90;;;;;;4935846;29;20761;-82
2022/09/08 11:30:40;;;;;;;10.37;9.33;;;28.50;99.90;;;;;;4947281;29;20453;-81
2022/09/08 11:33:56;;;;;;;11.13;10.13;;;28.20;99.90;;;;;;4941384;29;20458;-79
2022/09/08 11:36:49;;;;;;;11.30;10.20;;;28.30;99.90;;;;;;4908399;29;20462;-79
2022/09/08 11:39:46;;;;;;;16.43;11.60;;;28.50;99.90;;;;;;4941160;29;20458;-80
2022/09/08 11:43:05;;;;;;;11.73;10.63;;;29.00;99.90;;;;;;4946437;29;20489;-79
2022/09/08 11:45:40;;;;;;;11.00;9.87;;;29.10;99.90;;;;;;4907107;29;20663;-81
2022/09/08 11:48:39;;;;;;;12.17;10.60;;;29.50;99.90;;;;;;4927381;29;20449;-82
2022/09/08 11:51:21;;;;;;;10.70;9.80;;;29.80;99.90;;;;;;4936299;29;20497;-83
2022/09/08 11:54:27;;;;;;;10.73;9.60;;;29.70;99.90;;;;;;4931318;29;20446;-82
2022/09/08 11:57:44;;;;;;;11.30;10.30;;;29.40;99.90;;;;;;4935707;29;21065;-83
2022/09/08 12:00:18;;;;;;;12.87;11.80;;;28.90;99.90;;;;;;4910906;29;20564;-80
2022/09/08 12:02:44;;;;;;;10.90;10.00;;;28.40;99.90;;;;;;4930942;29;20448;-82
2022/09/08 12:05:28;;;;;;;12.47;11.17;;;28.30;99.90;;;;;;4931606;29;20451;-80
2022/09/08 12:08:29;;;;;;;11.53;10.43;;;28.20;99.90;;;;;;4927821;29;20434;-81
2022/09/08 12:11:13;;;;;;;13.00;10.70;;;28.20;99.90;;;;;;4932121;29;20531;-80
2022/09/08 12:13:52;;;;;;;11.10;10.00;;;28.50;99.90;;;;;;4927041;29;20475;-80
2022/09/08 12:16:28;;;;;;;11.53;10.57;;;28.70;99.90;;;;;;4937635;29;20450;-82
2022/09/08 12:19:05;;;;;;;11.17;10.10;;;28.90;99.90;;;;;;4922784;29;20762;-83
2022/09/08 12:21:50;;;;;;;10.53;9.63;;;29.00;99.90;;;;;;4927904;29;20450;-81
2022/09/08 12:24:49;;;;;;;10.10;9.27;;;28.90;99.90;;;;;;4927332;29;20478;-81
2022/09/08 12:28:00;;;;;;;14.10;11.73;;;28.40;99.90;;;;;;4914796;29;20634;-82
2022/09/08 12:31:13;;;;;;;11.10;10.17;;;28.20;99.90;;;;;;4906071;29;20550;-78
2022/09/08 12:34:07;;;;;;;12.10;10.90;;;28.00;99.90;;;;;;4934715;29;20429;-83
2022/09/08 12:36:49;;;;;;;12.20;11.17;;;27.80;99.90;;;;;;4929288;29;20437;-80
2022/09/08 12:39:35;;;;;;;11.30;10.30;;;27.80;99.90;;;;;;4930789;29;20451;-82
2022/09/08 12:42:27;;;;;;;12.23;11.03;;;27.80;99.90;;;;;;4914222;29;20465;-83
2022/09/08 12:45:20;;;;;;;10.57;9.70;;;27.90;99.90;;;;;;4928787;29;20464;-79
2022/09/08 12:48:01;;;;;;;11.60;10.40;;;28.10;99.90;;;;;;4925899;29;20462;-80
2022/09/08 12:50:58;;;;;;;11.20;10.30;;;28.10;99.90;;;;;;4934726;29;20478;-81
2022/09/08 12:54:00;;;;;;;10.90;10.00;;;28.20;99.90;;;;;;4928064;29;20698;-80
2022/09/08 12:56:51;;;;;;;10.73;9.87;;;28.00;99.90;;;;;;4932871;29;20440;-80
2022/09/08 12:59:31;;;;;;;12.00;10.67;;;27.60;99.90;;;;;;4931985;29;20542;-80
2022/09/08 13:02:14;;;;;;;11.67;10.67;;;27.50;99.90;;;;;;4922687;29;20453;-79
2022/09/08 13:05:19;;;;;;;11.80;10.70;;;27.30;99.90;;;;;;4923803;29;20473;-82
2022/09/08 13:08:13;;;;;;;11.20;10.07;;;27.30;99.90;;;;;;4925002;29;20455;-82
2022/09/08 13:10:44;;;;;;;11.53;10.63;;;27.40;99.90;;;;;;4928199;29;20433;-80
2022/09/08 13:13:30;;;;;;;14.60;10.90;;;27.40;99.90;;;;;;4923945;29;20625;-81
2022/09/08 13:16:12;;;;;;;11.60;10.47;;;27.30;99.90;;;;;;4926350;29;20442;-80
2022/09/08 13:19:06;;;;;;;12.00;10.97;;;27.30;99.90;;;;;;4921565;29;20738;-83
2022/09/08 13:21:58;;;;;;;11.10;10.20;;;27.40;99.90;;;;;;4919505;29;20503;-81
2022/09/08 13:24:49;;;;;;;12.13;11.20;;;27.40;99.90;;;;;;4916041;29;20542;-78
2022/09/08 13:28:00;;;;;;;13.43;10.40;;;27.50;99.90;;;;;;4931223;29;20490;-80
2022/09/08 13:30:42;;;;;;;11.17;10.07;;;27.30;99.90;;;;;;4911606;29;20446;-81
2022/09/08 13:33:30;;;;;;;12.47;11.10;;;27.10;99.90;;;;;;4931992;29;20453;-81